createdAt,value
2023-02-24T00:00:33.793Z,2.10
2023-02-24T00:01:36.282Z,1.78
2023-02-24T00:02:38.715Z,1.92
2023-02-24T00:03:41.443Z,2.38
2023-02-24T00:04:43.985Z,2.53
2023-02-24T00:05:46.469Z,2.13
2023-02-24T00:06:48.952Z,1.89
2023-02-24T00:07:51.512Z,1.60
2023-02-24T00:08:54.188Z,1.82
2023-02-24T00:09:56.643Z,1.72
2023-02-24T00:10:59.086Z,1.79
2023-02-24T00:12:01.632Z,1.83
2023-02-24T00:13:04.088Z,1.76
2023-02-24T00:14:06.721Z,2.15
2023-02-24T00:15:09.155Z,1.66
2023-02-24T00:16:11.623Z,1.66
2023-02-24T00:17:14.065Z,1.47
2023-02-24T00:18:16.610Z,1.50
2023-02-24T00:19:19.124Z,1.62
2023-02-24T00:20:21.558Z,1.67
2023-02-24T00:21:23.960Z,1.88
2023-02-24T00:22:26.421Z,1.98
2023-02-24T00:23:28.861Z,1.72
2023-02-24T00:24:31.434Z,1.91
2023-02-24T00:25:33.919Z,1.88
2023-02-24T00:26:36.490Z,1.75
2023-02-24T00:27:38.943Z,1.73
2023-02-24T00:28:41.358Z,1.78
2023-02-24T00:29:43.838Z,1.52
2023-02-24T00:30:46.397Z,1.62
2023-02-24T00:31:49.076Z,1.67
2023-02-24T00:32:51.695Z,1.63
2023-02-24T00:33:54.148Z,2.17
2023-02-24T00:34:56.806Z,1.79
2023-02-24T00:35:59.231Z,1.80
2023-02-24T00:37:01.756Z,1.69
2023-02-24T00:38:04.567Z,1.92
2023-02-24T00:39:07.054Z,1.93
2023-02-24T00:40:09.664Z,1.92
2023-02-24T00:41:12.096Z,1.85
2023-02-24T00:42:14.321Z,2.08
2023-02-24T00:43:16.493Z,1.92
2023-02-24T00:44:18.735Z,1.55
2023-02-24T00:45:21.088Z,1.74
2023-02-24T00:46:23.382Z,1.55
2023-02-24T00:47:25.672Z,2.00
2023-02-24T00:48:28.060Z,1.90
2023-02-24T00:49:30.478Z,1.83
2023-02-24T00:50:32.960Z,1.77
2023-02-24T00:51:35.371Z,1.77
2023-02-24T00:52:37.829Z,1.63
2023-02-24T00:53:40.285Z,1.49
2023-02-24T00:54:42.712Z,1.72
2023-02-24T00:55:45.314Z,1.67
2023-02-24T00:56:47.768Z,1.63
2023-02-24T00:57:50.174Z,1.82
2023-02-24T00:58:52.622Z,1.50
2023-02-24T00:59:55.048Z,1.80
2023-02-24T01:00:57.648Z,1.88
2023-02-24T01:02:00.243Z,1.73
2023-02-24T01:03:02.818Z,1.79
2023-02-24T01:04:05.255Z,1.83
2023-02-24T01:05:07.652Z,1.94
2023-02-24T01:06:10.277Z,2.02
2023-02-24T01:07:12.736Z,1.96
2023-02-24T01:08:15.163Z,1.93
2023-02-24T01:09:17.694Z,2.02
2023-02-24T01:10:20.145Z,1.82
2023-02-24T01:11:23.171Z,2.04
2023-02-24T01:12:25.828Z,2.19
2023-02-24T01:13:28.062Z,2.00
2023-02-24T01:14:30.229Z,1.90
2023-02-24T01:15:33.056Z,2.16
2023-02-24T01:16:36.050Z,1.83
2023-02-24T01:17:38.250Z,2.07
2023-02-24T01:18:40.435Z,2.14
2023-02-24T01:19:42.983Z,2.13
2023-02-24T01:20:45.427Z,1.62
2023-02-24T01:21:47.955Z,1.82
2023-02-24T01:22:50.423Z,1.68
2023-02-24T01:23:53.033Z,2.02
2023-02-24T01:24:55.485Z,2.15
2023-02-24T01:25:57.892Z,2.10
2023-02-24T01:27:00.501Z,2.09
2023-02-24T01:28:03.097Z,1.98
2023-02-24T01:29:08.570Z,1.78
2023-02-24T01:30:11.035Z,1.82
2023-02-24T01:31:13.590Z,1.62
2023-02-24T01:32:16.433Z,1.56
2023-02-24T01:33:19.171Z,1.60
2023-02-24T01:34:21.682Z,1.94
2023-02-24T01:35:24.089Z,1.77
2023-02-24T01:36:26.318Z,1.68
2023-02-24T01:37:28.768Z,2.05
2023-02-24T01:38:30.969Z,2.06
2023-02-24T01:39:33.303Z,2.02
2023-02-24T01:40:35.516Z,1.96
2023-02-24T01:41:37.739Z,2.13
2023-02-24T01:42:40.128Z,2.08
2023-02-24T01:43:42.361Z,2.10
2023-02-24T01:44:44.553Z,2.03
2023-02-24T01:45:46.768Z,1.93
2023-02-24T01:46:49.003Z,1.86
2023-02-24T01:47:51.453Z,1.84
2023-02-24T01:48:53.665Z,1.79
2023-02-24T01:49:55.851Z,2.23
2023-02-24T01:50:58.054Z,2.18
2023-02-24T01:52:00.296Z,1.92
2023-02-24T01:53:02.651Z,1.93
2023-02-24T01:54:04.944Z,2.04
2023-02-24T01:55:07.193Z,2.22
2023-02-24T01:56:09.415Z,2.47
2023-02-24T01:57:11.702Z,2.28
2023-02-24T01:58:14.080Z,2.16
2023-02-24T01:59:16.272Z,2.19
2023-02-24T02:00:18.452Z,1.96
2023-02-24T02:01:21.068Z,1.84
2023-02-24T02:02:23.749Z,1.75
2023-02-24T02:03:26.235Z,1.84
2023-02-24T02:04:28.822Z,1.83
2023-02-24T02:05:31.270Z,1.71
2023-02-24T02:06:33.671Z,1.77
2023-02-24T02:07:36.091Z,1.65
2023-02-24T02:08:38.663Z,1.66
2023-02-24T02:09:41.342Z,2.27
2023-02-24T02:10:43.791Z,1.94
2023-02-24T02:11:46.318Z,1.73
2023-02-24T02:12:48.742Z,1.49
2023-02-24T02:13:51.280Z,1.91
2023-02-24T02:14:53.737Z,1.74
2023-02-24T02:15:56.363Z,2.19
2023-02-24T02:16:58.944Z,1.64
2023-02-24T02:18:01.444Z,1.98
2023-02-24T02:19:03.895Z,1.95
2023-02-24T02:20:06.296Z,1.79
2023-02-24T02:21:08.730Z,1.62
2023-02-24T02:22:11.142Z,1.65
2023-02-24T02:23:13.556Z,1.60
2023-02-24T02:24:16.013Z,1.72
2023-02-24T02:25:18.428Z,1.95
2023-02-24T02:26:20.849Z,1.76
2023-02-24T02:27:23.318Z,1.71
2023-02-24T02:28:25.714Z,1.78
2023-02-24T02:29:28.281Z,1.92
2023-02-24T02:30:30.669Z,1.62
2023-02-24T02:31:33.193Z,1.79
2023-02-24T02:32:35.818Z,1.58
2023-02-24T02:33:38.368Z,1.68
2023-02-24T02:34:40.831Z,1.73
2023-02-24T02:35:43.251Z,1.61
2023-02-24T02:36:45.708Z,1.64
2023-02-24T02:37:48.176Z,1.61
2023-02-24T02:38:50.539Z,1.61
2023-02-24T02:39:53.008Z,1.75
2023-02-24T02:40:55.442Z,1.55
2023-02-24T02:41:57.963Z,1.64
2023-02-24T02:43:00.472Z,1.50
2023-02-24T02:44:02.679Z,1.53
2023-02-24T02:45:05.107Z,1.55
2023-02-24T02:46:07.366Z,1.46
2023-02-24T02:47:09.748Z,1.79
2023-02-24T02:48:12.009Z,1.43
2023-02-24T02:49:14.277Z,1.57
2023-02-24T02:50:16.456Z,1.52
2023-02-24T02:51:18.995Z,1.30
2023-02-24T02:52:21.647Z,1.67
2023-02-24T02:53:24.011Z,1.61
2023-02-24T02:54:26.408Z,1.59
2023-02-24T02:55:30.359Z,1.32
2023-02-24T02:56:32.874Z,1.32
2023-02-24T02:57:35.261Z,1.35
2023-02-24T02:58:37.773Z,1.52
2023-02-24T02:59:40.207Z,1.51
2023-02-24T03:00:42.920Z,1.39
2023-02-24T03:01:45.422Z,1.23
2023-02-24T03:02:47.892Z,1.35
2023-02-24T03:03:50.349Z,1.33
2023-02-24T03:04:52.808Z,1.31
2023-02-24T03:05:55.313Z,1.37
2023-02-24T03:06:57.739Z,1.17
2023-02-24T03:08:00.288Z,1.30
2023-02-24T03:09:02.725Z,1.58
2023-02-24T03:10:05.277Z,1.47
2023-02-24T03:11:07.909Z,1.57
2023-02-24T03:12:10.361Z,1.48
2023-02-24T03:13:12.763Z,1.46
2023-02-24T03:14:15.309Z,1.51
2023-02-24T03:15:17.825Z,1.79
2023-02-24T03:16:20.485Z,1.49
2023-02-24T03:17:22.954Z,1.65
2023-02-24T03:18:25.345Z,1.65
2023-02-24T03:19:27.763Z,1.57
2023-02-24T03:20:30.237Z,2.02
2023-02-24T03:21:32.759Z,1.72
2023-02-24T03:22:35.134Z,1.84
2023-02-24T03:23:37.554Z,1.65
2023-02-24T03:24:39.996Z,1.78
2023-02-24T03:25:42.376Z,1.72
2023-02-24T03:26:45.219Z,1.69
2023-02-24T03:27:47.648Z,1.75
2023-02-24T03:28:50.124Z,1.77
2023-02-24T03:29:52.359Z,1.82
2023-02-24T03:30:54.816Z,1.71
2023-02-24T03:31:57.135Z,1.80
2023-02-24T03:32:59.696Z,1.85
2023-02-24T03:34:02.184Z,1.72
2023-02-24T03:35:04.698Z,1.82
2023-02-24T03:36:07.230Z,1.69
2023-02-24T03:37:09.930Z,1.52
2023-02-24T03:38:12.391Z,1.12
2023-02-24T03:39:14.930Z,1.47
2023-02-24T03:40:18.470Z,1.98
2023-02-24T03:41:21.192Z,1.59
2023-02-24T03:42:23.709Z,1.48
2023-02-24T03:43:26.029Z,1.47
2023-02-24T03:44:28.323Z,1.76
2023-02-24T03:45:30.544Z,1.46
2023-02-24T03:46:32.740Z,1.41
2023-02-24T03:47:35.366Z,1.51
2023-02-24T03:48:37.575Z,1.65
2023-02-24T03:49:39.773Z,1.69
2023-02-24T03:50:42.037Z,1.67
2023-02-24T03:51:44.558Z,1.63
2023-02-24T03:52:47.122Z,1.44
2023-02-24T03:53:49.502Z,1.72
2023-02-24T03:54:51.920Z,1.59
2023-02-24T03:55:54.167Z,1.37
2023-02-24T03:56:56.563Z,1.38
2023-02-24T03:57:59.066Z,1.62
2023-02-24T03:59:01.512Z,1.31
2023-02-24T04:00:04.188Z,1.52
2023-02-24T04:01:06.729Z,1.45
2023-02-24T04:02:09.189Z,1.43
2023-02-24T04:03:11.828Z,1.47
2023-02-24T04:04:14.389Z,1.63
2023-02-24T04:05:16.810Z,1.47
2023-02-24T04:06:19.370Z,1.73
2023-02-24T04:07:21.750Z,1.62
2023-02-24T04:08:24.229Z,1.72
2023-02-24T04:09:26.710Z,1.57
2023-02-24T04:10:29.117Z,1.52
2023-02-24T04:11:31.558Z,1.47
2023-02-24T04:12:34.125Z,1.45
2023-02-24T04:13:37.130Z,1.63
2023-02-24T04:14:39.540Z,1.65
2023-02-24T04:15:42.066Z,1.43
2023-02-24T04:16:44.537Z,1.40
2023-02-24T04:17:47.003Z,1.57
2023-02-24T04:18:49.621Z,1.73
2023-02-24T04:19:52.036Z,1.75
2023-02-24T04:20:54.222Z,1.43
2023-02-24T04:21:56.676Z,1.58
2023-02-24T04:22:59.091Z,1.44
2023-02-24T04:24:01.675Z,1.22
2023-02-24T04:25:04.130Z,1.44
2023-02-24T04:26:06.530Z,1.57
2023-02-24T04:27:09.160Z,1.55
2023-02-24T04:28:11.550Z,1.42
2023-02-24T04:29:14.050Z,1.42
2023-02-24T04:30:16.512Z,1.77
2023-02-24T04:31:18.914Z,1.45
2023-02-24T04:32:21.358Z,1.36
2023-02-24T04:33:23.715Z,1.35
2023-02-24T04:34:26.066Z,1.41
2023-02-24T04:35:28.279Z,1.42
2023-02-24T04:36:30.531Z,1.79
2023-02-24T04:37:32.902Z,1.66
2023-02-24T04:38:35.090Z,1.35
2023-02-24T04:39:37.825Z,1.65
2023-02-24T04:40:40.033Z,1.54
2023-02-24T04:41:42.198Z,1.84
2023-02-24T04:42:44.363Z,1.73
2023-02-24T04:43:46.578Z,1.25
2023-02-24T04:44:49.340Z,1.49
2023-02-24T04:45:51.547Z,1.25
2023-02-24T04:46:53.737Z,1.59
2023-02-24T04:47:55.929Z,1.25
2023-02-24T04:48:58.148Z,1.31
2023-02-24T04:50:00.397Z,1.33
2023-02-24T04:51:02.642Z,1.64
2023-02-24T04:52:04.788Z,1.54
2023-02-24T04:53:07.048Z,1.52
2023-02-24T04:54:09.175Z,1.32
2023-02-24T04:55:11.449Z,1.50
2023-02-24T04:56:13.653Z,1.52
2023-02-24T04:57:16.088Z,1.53
2023-02-24T04:58:18.536Z,1.55
2023-02-24T04:59:20.983Z,1.41
2023-02-24T05:00:23.520Z,1.56
2023-02-24T05:01:25.980Z,1.47
2023-02-24T05:02:28.382Z,1.50
2023-02-24T05:03:30.647Z,1.48
2023-02-24T05:04:33.225Z,1.72
2023-02-24T05:05:35.557Z,1.57
2023-02-24T05:06:37.746Z,1.52
2023-02-24T05:07:40.205Z,1.62
2023-02-24T05:08:42.715Z,1.62
2023-02-24T05:09:45.191Z,1.54
2023-02-24T05:10:47.791Z,1.46
2023-02-24T05:11:50.195Z,1.31
2023-02-24T05:12:52.612Z,1.65
2023-02-24T05:13:55.016Z,1.19
2023-02-24T05:14:57.466Z,1.22
2023-02-24T05:15:59.732Z,1.46
2023-02-24T05:17:01.982Z,1.24
2023-02-24T05:18:04.418Z,1.39
2023-02-24T05:19:06.892Z,1.26
2023-02-24T05:20:09.324Z,1.12
2023-02-24T05:21:12.298Z,1.43
2023-02-24T05:22:14.931Z,1.32
2023-02-24T05:23:17.132Z,1.21
2023-02-24T05:24:19.340Z,0.96
2023-02-24T05:25:21.690Z,1.13
2023-02-24T05:26:24.368Z,1.07
2023-02-24T05:27:26.690Z,0.94
2023-02-24T05:28:29.095Z,0.93
2023-02-24T05:29:31.583Z,1.08
2023-02-24T05:30:34.039Z,1.06
2023-02-24T05:31:36.774Z,1.00
2023-02-24T05:32:39.414Z,1.03
2023-02-24T05:33:41.859Z,1.10
2023-02-24T05:34:44.288Z,1.38
2023-02-24T05:35:46.772Z,1.33
2023-02-24T05:36:49.316Z,1.39
2023-02-24T05:37:51.838Z,1.33
2023-02-24T05:38:56.362Z,1.45
2023-02-24T05:39:58.073Z,1.41
2023-02-24T05:41:00.562Z,1.72
2023-02-24T05:42:03.055Z,1.48
2023-02-24T05:43:05.478Z,1.48
2023-02-24T05:44:09.408Z,1.41
2023-02-24T05:45:11.813Z,1.47
2023-02-24T05:46:14.347Z,1.26
2023-02-24T05:47:16.932Z,1.29
2023-02-24T05:48:19.813Z,1.41
2023-02-24T05:49:22.162Z,1.65
2023-02-24T05:50:24.584Z,1.63
2023-02-24T05:51:27.013Z,1.42
2023-02-24T05:52:29.668Z,1.44
2023-02-24T05:53:32.109Z,1.33
2023-02-24T05:54:34.530Z,1.36
2023-02-24T05:55:36.978Z,1.42
2023-02-24T05:56:39.382Z,1.52
2023-02-24T05:57:41.870Z,1.42
2023-02-24T05:58:44.388Z,1.45
2023-02-24T05:59:46.863Z,1.38
2023-02-24T06:00:49.360Z,1.54
2023-02-24T06:01:51.870Z,1.17
2023-02-24T06:02:54.505Z,1.15
2023-02-24T06:03:58.163Z,1.58
2023-02-24T06:05:00.732Z,1.45
2023-02-24T06:06:03.232Z,1.45
2023-02-24T06:07:05.691Z,1.26
2023-02-24T06:08:08.116Z,1.36
2023-02-24T06:09:10.732Z,1.26
2023-02-24T06:10:13.209Z,1.33
2023-02-24T06:11:15.719Z,1.32
2023-02-24T06:12:18.089Z,1.53
2023-02-24T06:13:20.578Z,1.22
2023-02-24T06:14:23.053Z,1.32
2023-02-24T06:15:25.337Z,1.29
2023-02-24T06:16:27.543Z,1.43
2023-02-24T06:17:29.900Z,1.48
2023-02-24T06:18:32.114Z,1.42
2023-02-24T06:19:34.341Z,1.38
2023-02-24T06:20:36.638Z,1.26
2023-02-24T06:21:38.853Z,1.13
2023-02-24T06:22:41.346Z,1.39
2023-02-24T06:23:43.867Z,1.51
2023-02-24T06:24:46.316Z,1.36
2023-02-24T06:25:49.157Z,1.32
2023-02-24T06:26:51.573Z,1.42
2023-02-24T06:27:54.029Z,1.19
2023-02-24T06:28:56.586Z,1.27
2023-02-24T06:29:59.036Z,1.46
2023-02-24T06:31:01.578Z,1.18
2023-02-24T06:32:04.257Z,1.61
2023-02-24T06:33:06.811Z,1.72
2023-02-24T06:34:09.444Z,1.53
2023-02-24T06:35:12.202Z,1.69
2023-02-24T06:36:14.665Z,1.40
2023-02-24T06:37:17.076Z,1.23
2023-02-24T06:38:19.606Z,1.46
2023-02-24T06:39:22.163Z,1.39
2023-02-24T06:40:24.576Z,1.45
2023-02-24T06:41:26.969Z,1.22
2023-02-24T06:42:29.392Z,1.71
2023-02-24T06:43:31.792Z,1.65
2023-02-24T06:44:34.233Z,1.87
2023-02-24T06:45:36.556Z,1.70
2023-02-24T06:46:38.797Z,1.55
2023-02-24T06:47:40.995Z,1.41
2023-02-24T06:48:43.304Z,1.78
2023-02-24T06:49:45.471Z,1.58
2023-02-24T06:50:47.698Z,1.62
2023-02-24T06:51:50.108Z,1.56
2023-02-24T06:52:52.593Z,1.28
2023-02-24T06:53:55.132Z,1.36
2023-02-24T06:54:58.033Z,1.49
2023-02-24T06:56:00.451Z,1.33
2023-02-24T06:57:02.984Z,1.28
2023-02-24T06:58:05.413Z,1.21
2023-02-24T06:59:07.944Z,1.26
2023-02-24T07:00:10.556Z,1.41
2023-02-24T07:01:13.022Z,1.31
2023-02-24T07:02:15.569Z,1.30
2023-02-24T07:03:18.005Z,1.35
2023-02-24T07:04:20.569Z,1.45
2023-02-24T07:05:23.404Z,1.32
2023-02-24T07:06:25.903Z,1.27
2023-02-24T07:07:28.328Z,1.24
2023-02-24T07:08:30.742Z,1.20
2023-02-24T07:09:33.216Z,1.17
2023-02-24T07:10:35.877Z,1.26
2023-02-24T07:11:38.308Z,1.24
2023-02-24T07:12:40.766Z,1.20
2023-02-24T07:13:43.251Z,1.39
2023-02-24T07:14:45.712Z,1.19
2023-02-24T07:15:48.370Z,1.15
2023-02-24T07:16:50.824Z,1.44
2023-02-24T07:17:53.230Z,1.15
2023-02-24T07:18:55.674Z,1.14
2023-02-24T07:19:58.070Z,1.02
2023-02-24T07:21:00.564Z,1.02
2023-02-24T07:22:02.978Z,1.02
2023-02-24T07:23:05.591Z,1.07
2023-02-24T07:24:07.845Z,1.13
2023-02-24T07:25:10.017Z,1.08
2023-02-24T07:26:12.431Z,1.06
2023-02-24T07:27:14.647Z,1.21
2023-02-24T07:28:16.841Z,1.05
2023-02-24T07:29:19.050Z,1.02
2023-02-24T07:30:21.462Z,1.16
2023-02-24T07:31:24.489Z,1.03
2023-02-24T07:32:27.249Z,1.08
2023-02-24T07:33:29.702Z,1.01
2023-02-24T07:34:32.175Z,1.08
2023-02-24T07:35:34.746Z,1.12
2023-02-24T07:36:37.249Z,1.31
2023-02-24T07:37:39.634Z,1.37
2023-02-24T07:38:42.213Z,1.73
2023-02-24T07:39:44.698Z,1.65
2023-02-24T07:40:47.618Z,1.35
2023-02-24T07:41:50.217Z,1.32
2023-02-24T07:42:52.422Z,1.47
2023-02-24T07:43:55.073Z,1.45
2023-02-24T07:44:57.540Z,1.32
2023-02-24T07:46:00.125Z,1.32
2023-02-24T07:47:02.470Z,1.24
2023-02-24T07:48:04.692Z,1.31
2023-02-24T07:49:06.877Z,1.08
2023-02-24T07:50:09.094Z,1.07
2023-02-24T07:51:11.287Z,1.10
2023-02-24T07:52:13.494Z,1.19
2023-02-24T07:53:15.709Z,1.30
2023-02-24T07:54:17.897Z,1.18
2023-02-24T07:55:20.079Z,1.12
2023-02-24T07:56:22.292Z,1.27
2023-02-24T07:57:24.526Z,1.33
2023-02-24T07:58:26.701Z,1.31
2023-02-24T07:59:28.907Z,1.46
2023-02-24T08:00:31.129Z,1.35
2023-02-24T08:01:33.665Z,1.22
2023-02-24T08:02:35.886Z,1.38
2023-02-24T08:03:38.129Z,1.32
2023-02-24T08:04:40.343Z,1.25
2023-02-24T08:05:42.652Z,1.25
2023-02-24T08:06:47.835Z,1.10
2023-02-24T08:07:48.580Z,1.19
2023-02-24T08:08:51.078Z,1.24
2023-02-24T08:09:53.464Z,1.20
2023-02-24T08:10:55.943Z,1.08
2023-02-24T08:11:58.430Z,1.34
2023-02-24T08:13:01.006Z,1.37
2023-02-24T08:14:03.261Z,1.33
2023-02-24T08:15:05.408Z,1.31
2023-02-24T08:16:07.918Z,1.31
2023-02-24T08:17:10.386Z,1.25
2023-02-24T08:18:12.963Z,1.32
2023-02-24T08:19:15.401Z,1.35
2023-02-24T08:20:17.834Z,1.31
2023-02-24T08:21:20.546Z,1.25
2023-02-24T08:22:23.044Z,1.45
2023-02-24T08:23:25.515Z,1.37
2023-02-24T08:24:27.942Z,1.16
2023-02-24T08:25:30.379Z,1.27
2023-02-24T08:26:32.996Z,1.57
2023-02-24T08:27:35.431Z,1.30
2023-02-24T08:28:38.047Z,2.08
2023-02-24T08:29:40.522Z,1.68
2023-02-24T08:30:43.003Z,1.48
2023-02-24T08:31:45.600Z,1.78
2023-02-24T08:32:48.080Z,1.75
2023-02-24T08:33:50.627Z,3.10
2023-02-24T08:34:53.040Z,2.34
2023-02-24T08:35:55.718Z,1.69
2023-02-24T08:36:57.946Z,1.59
2023-02-24T08:38:00.141Z,1.78
2023-02-24T08:39:02.353Z,1.65
2023-02-24T08:40:04.635Z,1.82
2023-02-24T08:41:07.164Z,2.01
2023-02-24T08:42:09.603Z,1.65
2023-02-24T08:43:11.980Z,1.74
2023-02-24T08:44:14.553Z,2.07
2023-02-24T08:45:17.050Z,1.91
2023-02-24T08:46:19.510Z,1.56
2023-02-24T08:47:22.340Z,1.85
2023-02-24T08:48:24.853Z,1.75
2023-02-24T08:49:27.432Z,1.74
2023-02-24T08:50:29.986Z,1.92
2023-02-24T08:51:32.438Z,1.85
2023-02-24T08:52:34.804Z,1.65
2023-02-24T08:53:37.273Z,1.76
2023-02-24T08:54:39.777Z,2.03
2023-02-24T08:55:42.280Z,2.10
2023-02-24T08:56:44.730Z,2.13
2023-02-24T08:57:47.252Z,2.06
2023-02-24T08:58:49.750Z,2.54
2023-02-24T08:59:52.540Z,1.98
2023-02-24T09:00:54.999Z,1.57
2023-02-24T09:02:04.597Z,1.74
2023-02-24T09:03:01.374Z,1.65
2023-02-24T09:04:03.821Z,1.91
2023-02-24T09:05:06.436Z,1.73
2023-02-24T09:06:08.942Z,1.92
2023-02-24T09:07:12.185Z,1.83
2023-02-24T09:08:14.765Z,1.87
2023-02-24T09:09:17.267Z,1.96
2023-02-24T09:10:19.865Z,1.58
2023-02-24T09:11:22.692Z,1.57
2023-02-24T09:12:25.404Z,1.62
2023-02-24T09:13:27.683Z,1.69
2023-02-24T09:14:29.915Z,1.67
2023-02-24T09:15:32.475Z,1.98
2023-02-24T09:16:34.975Z,1.73
2023-02-24T09:17:37.231Z,1.60
2023-02-24T09:18:39.426Z,2.00
2023-02-24T09:19:41.689Z,1.84
2023-02-24T09:20:43.991Z,1.94
2023-02-24T09:21:46.257Z,1.54
2023-02-24T09:22:48.382Z,1.62
2023-02-24T09:23:50.573Z,2.20
2023-02-24T09:24:53.161Z,1.68
2023-02-24T09:25:55.665Z,1.77
2023-02-24T09:26:58.337Z,1.78
2023-02-24T09:28:00.779Z,1.91
2023-02-24T09:29:03.286Z,1.72
2023-02-24T09:30:05.700Z,2.09
2023-02-24T09:31:08.293Z,1.73
2023-02-24T09:32:10.906Z,1.58
2023-02-24T09:33:13.547Z,1.38
2023-02-24T09:34:16.040Z,2.00
2023-02-24T09:35:18.539Z,1.98
2023-02-24T09:36:21.134Z,1.71
2023-02-24T09:37:24.170Z,1.58
2023-02-24T09:38:26.606Z,1.74
2023-02-24T09:39:28.843Z,1.60
2023-02-24T09:40:31.330Z,1.96
2023-02-24T09:41:34.174Z,1.97
2023-02-24T09:42:37.341Z,2.00
2023-02-24T09:43:40.187Z,1.80
2023-02-24T09:44:42.629Z,1.73
2023-02-24T09:45:45.275Z,1.98
2023-02-24T09:46:48.217Z,1.79
2023-02-24T09:47:50.470Z,1.68
2023-02-24T09:48:52.740Z,1.66
2023-02-24T09:49:54.939Z,1.98
2023-02-24T09:51:03.345Z,1.99
2023-02-24T09:52:00.978Z,1.80
2023-02-24T09:53:11.079Z,1.96
2023-02-24T09:54:07.386Z,1.92
2023-02-24T09:55:09.605Z,1.95
2023-02-24T09:56:12.373Z,1.57
2023-02-24T09:57:15.011Z,2.22
2023-02-24T09:58:17.480Z,2.17
2023-02-24T09:59:20.023Z,1.83
2023-02-24T10:00:22.304Z,1.85
2023-02-24T10:01:25.143Z,1.85
2023-02-24T10:02:27.921Z,1.69
2023-02-24T10:03:30.320Z,1.57
2023-02-24T10:04:32.999Z,1.98
2023-02-24T10:05:35.592Z,2.17
2023-02-24T10:06:38.045Z,2.11
2023-02-24T10:07:40.601Z,1.85
2023-02-24T10:08:43.095Z,2.09
2023-02-24T10:09:45.577Z,1.94
2023-02-24T10:10:48.169Z,2.03
2023-02-24T10:11:50.615Z,2.07
2023-02-24T10:12:53.715Z,1.82
2023-02-24T10:13:56.256Z,1.87
2023-02-24T10:15:00.458Z,2.23
2023-02-24T10:16:06.421Z,2.08
2023-02-24T10:17:07.013Z,1.99
2023-02-24T10:18:09.521Z,1.66
2023-02-24T10:19:11.932Z,1.78
2023-02-24T10:20:14.196Z,1.69
2023-02-24T10:21:16.863Z,1.97
2023-02-24T10:22:19.296Z,2.02
2023-02-24T10:23:21.974Z,2.08
2023-02-24T10:24:24.498Z,2.12
2023-02-24T10:25:27.930Z,1.80
2023-02-24T10:26:30.165Z,1.93
2023-02-24T10:27:32.584Z,1.75
2023-02-24T10:28:35.212Z,1.96
2023-02-24T10:29:37.628Z,2.28
2023-02-24T10:30:40.286Z,1.88
2023-02-24T10:31:43.194Z,1.81
2023-02-24T10:32:45.775Z,1.78
2023-02-24T10:33:48.104Z,2.03
2023-02-24T10:34:50.606Z,1.85
2023-02-24T10:35:53.161Z,1.88
2023-02-24T10:36:55.568Z,1.52
2023-02-24T10:37:57.991Z,1.65
2023-02-24T10:39:00.717Z,1.57
2023-02-24T10:40:02.950Z,1.52
2023-02-24T10:41:05.095Z,1.79
2023-02-24T10:42:07.396Z,2.02
2023-02-24T10:43:09.688Z,1.56
2023-02-24T10:44:12.070Z,1.68
2023-02-24T10:45:18.067Z,1.88
2023-02-24T10:46:22.141Z,1.86
2023-02-24T10:47:21.947Z,1.66
2023-02-24T10:48:32.296Z,1.83
2023-02-24T10:49:28.027Z,1.74
2023-02-24T10:50:32.472Z,1.76
2023-02-24T10:51:34.361Z,1.73
2023-02-24T10:52:36.627Z,2.12
2023-02-24T10:53:39.270Z,1.73
2023-02-24T10:54:41.806Z,1.82
2023-02-24T10:55:43.957Z,1.55
2023-02-24T10:56:55.259Z,1.80
2023-02-24T10:57:59.483Z,1.61
2023-02-24T10:59:02.292Z,1.70
2023-02-24T11:00:05.260Z,1.78
2023-02-24T11:01:08.402Z,1.35
2023-02-24T11:02:11.327Z,1.43
2023-02-24T11:03:22.147Z,1.41
2023-02-24T11:04:18.698Z,1.46
2023-02-24T11:05:21.573Z,1.61
2023-02-24T11:06:24.347Z,1.42
2023-02-24T11:07:27.118Z,1.45
2023-02-24T11:08:30.013Z,1.48
2023-02-24T11:09:32.761Z,1.25
2023-02-24T11:10:35.535Z,1.46
2023-02-24T11:11:38.411Z,1.32
2023-02-24T11:12:41.382Z,1.50
2023-02-24T11:13:44.153Z,1.53
2023-02-24T11:14:47.130Z,1.76
2023-02-24T11:15:49.938Z,1.55
2023-02-24T11:16:52.998Z,1.49
2023-02-24T11:17:55.908Z,1.82
2023-02-24T11:18:58.974Z,1.92
2023-02-24T11:20:01.921Z,1.69
2023-02-24T11:21:05.014Z,1.72
2023-02-24T11:22:07.968Z,1.66
2023-02-24T11:23:10.870Z,1.58
2023-02-24T11:24:13.640Z,1.91
2023-02-24T11:25:16.616Z,1.86
2023-02-24T11:26:19.378Z,1.53
2023-02-24T11:27:22.142Z,1.96
2023-02-24T11:28:24.731Z,1.82
2023-02-24T11:29:27.291Z,1.78
2023-02-24T11:30:30.078Z,1.67
2023-02-24T11:31:32.886Z,1.74
2023-02-24T11:32:35.881Z,1.79
2023-02-24T11:33:38.579Z,1.69
2023-02-24T11:34:41.375Z,1.81
2023-02-24T11:35:44.015Z,1.71
2023-02-24T11:36:48.025Z,1.55
2023-02-24T11:37:50.581Z,1.51
2023-02-24T11:38:53.363Z,1.55
2023-02-24T11:39:56.031Z,1.56
2023-02-24T11:40:58.825Z,1.79
2023-02-24T11:42:01.575Z,1.54
2023-02-24T11:43:04.141Z,1.32
2023-02-24T11:44:06.804Z,1.45
2023-02-24T11:45:09.585Z,1.37
2023-02-24T11:46:12.312Z,1.17
2023-02-24T11:47:14.964Z,1.41
2023-02-24T11:48:17.796Z,1.42
2023-02-24T11:49:20.365Z,1.45
2023-02-24T11:50:23.041Z,1.65
2023-02-24T11:51:25.720Z,1.50
2023-02-24T11:52:28.585Z,1.38
2023-02-24T11:53:31.238Z,1.50
2023-02-24T11:54:33.925Z,1.41
2023-02-24T11:55:36.589Z,1.53
2023-02-24T11:56:39.470Z,1.54
2023-02-24T11:57:42.141Z,1.35
2023-02-24T11:58:44.810Z,1.23
2023-02-24T11:59:47.474Z,1.54
2023-02-24T12:00:49.931Z,1.39
2023-02-24T12:01:52.147Z,1.37
2023-02-24T12:02:54.402Z,1.53
2023-02-24T12:03:56.579Z,1.25
2023-02-24T12:04:59.202Z,1.56
2023-02-24T12:06:01.659Z,1.64
2023-02-24T12:07:06.418Z,1.40
2023-02-24T12:08:08.064Z,1.40
2023-02-24T12:09:10.485Z,1.74
2023-02-24T12:10:17.246Z,1.47
2023-02-24T12:11:17.033Z,1.40
2023-02-24T12:12:19.511Z,1.51
2023-02-24T12:13:22.290Z,1.48
2023-02-24T12:14:24.761Z,1.33
2023-02-24T12:15:27.379Z,1.26
2023-02-24T12:16:29.855Z,1.42
2023-02-24T12:17:32.385Z,1.38
2023-02-24T12:18:34.764Z,1.51
2023-02-24T12:19:37.171Z,1.39
2023-02-24T12:20:39.550Z,1.26
2023-02-24T12:21:41.794Z,1.46
2023-02-24T12:22:44.194Z,1.49
2023-02-24T12:23:49.411Z,1.32
2023-02-24T12:24:51.616Z,1.33
2023-02-24T12:25:53.798Z,1.73
2023-02-24T12:26:56.106Z,1.56
2023-02-24T12:27:58.392Z,1.40
2023-02-24T12:29:00.645Z,1.49
2023-02-24T12:30:02.912Z,1.35
2023-02-24T12:31:05.281Z,1.57
2023-02-24T12:32:07.748Z,1.49
2023-02-24T12:33:10.158Z,1.48
2023-02-24T12:34:12.525Z,1.43
2023-02-24T12:35:15.157Z,1.43
2023-02-24T12:36:17.666Z,1.28
2023-02-24T12:37:20.203Z,1.44
2023-02-24T12:38:22.645Z,1.57
2023-02-24T12:39:25.457Z,1.72
2023-02-24T12:40:27.877Z,1.45
2023-02-24T12:41:30.336Z,1.67
2023-02-24T12:42:32.717Z,1.58
2023-02-24T12:43:35.198Z,1.44
2023-02-24T12:44:37.594Z,1.40
2023-02-24T12:45:40.074Z,1.59
2023-02-24T12:46:42.577Z,1.57
2023-02-24T12:47:44.977Z,1.64
2023-02-24T12:48:47.450Z,1.59
2023-02-24T12:49:49.843Z,1.39
2023-02-24T12:50:52.279Z,1.49
2023-02-24T12:51:54.482Z,1.34
2023-02-24T12:52:56.906Z,1.60
2023-02-24T12:53:59.486Z,1.60
2023-02-24T12:55:02.012Z,1.36
2023-02-24T12:56:04.411Z,1.52
2023-02-24T12:57:06.611Z,1.38
2023-02-24T12:58:09.061Z,1.26
2023-02-24T12:59:11.533Z,1.71
2023-02-24T13:00:14.117Z,1.65
2023-02-24T13:01:16.304Z,1.54
2023-02-24T13:02:18.652Z,1.52
2023-02-24T13:03:21.218Z,1.35
2023-02-24T13:04:23.633Z,1.36
2023-02-24T13:14:46.161Z,1.80
2023-02-24T13:15:48.317Z,1.66
2023-02-24T13:16:50.681Z,1.51
2023-02-24T13:17:53.131Z,1.41
2023-02-24T13:18:55.529Z,1.60
2023-02-24T13:19:57.960Z,1.62
2023-02-24T13:21:00.514Z,1.66
2023-02-24T13:22:02.954Z,1.52
2023-02-24T13:23:05.140Z,1.32
2023-02-24T13:24:07.645Z,1.44
2023-02-24T13:25:10.419Z,1.55
2023-02-24T13:26:12.838Z,1.53
2023-02-24T13:27:15.361Z,1.57
2023-02-24T13:28:17.898Z,1.56
2023-02-24T13:29:20.294Z,1.67
2023-02-24T13:30:22.702Z,1.57
2023-02-24T13:31:25.120Z,1.50
2023-02-24T13:32:27.704Z,1.63
2023-02-24T13:33:29.946Z,1.25
2023-02-24T13:34:32.401Z,1.70
2023-02-24T13:35:34.883Z,1.69
2023-02-24T13:36:37.281Z,1.91
2023-02-24T13:37:39.716Z,1.73
2023-02-24T13:38:42.176Z,1.40
2023-02-24T13:39:44.588Z,1.55
2023-02-24T13:40:46.869Z,1.31
2023-02-24T13:41:49.268Z,1.59
2023-02-24T13:42:51.718Z,1.49
2023-02-24T13:43:54.214Z,1.56
2023-02-24T13:44:56.636Z,1.87
2023-02-24T13:45:59.215Z,1.63
2023-02-24T13:47:01.771Z,1.52
2023-02-24T13:48:04.239Z,1.68
2023-02-24T13:49:06.957Z,1.63
2023-02-24T13:50:09.843Z,1.57
2023-02-24T13:51:12.554Z,1.40
2023-02-24T13:52:15.065Z,1.37
2023-02-24T13:53:17.536Z,1.38
2023-02-24T13:54:19.735Z,1.67
2023-02-24T13:55:21.917Z,1.85
2023-02-24T13:56:24.148Z,1.53
2023-02-24T13:57:26.329Z,1.42
2023-02-24T13:58:28.705Z,1.65
2023-02-24T13:59:30.835Z,1.65
2023-02-24T14:00:33.011Z,1.45
2023-02-24T14:01:35.552Z,1.67